Time;durP1;ratioP1;P1;durP2;ratioP2;P2;SDS_P1;SDS_P2;PMS_P1;PMS_P2;Temp;Humidity;BMP_temperature;BMP_pressure;BME280_temperature;BME280_humidity;BME280_pressure;Samples;Min_cycle;Max_cycle;Signal;HPM_P1;HPM_P2
2022/09/22 00:01:20;;;;;;;3.67;3.37;;;8.80;99.90;;;;;;5056637;28;20452;-71
2022/09/22 00:03:49;;;;;;;7.00;3.70;;;8.80;99.90;;;;;;5056607;28;20479;-73
2022/09/22 00:06:19;;;;;;;4.43;3.30;;;8.80;99.90;;;;;;5051041;28;20472;-73
2022/09/22 00:08:48;;;;;;;8.90;4.07;;;8.80;99.90;;;;;;5053225;28;20490;-73
2022/09/22 00:11:17;;;;;;;4.70;3.80;;;8.70;99.90;;;;;;5047517;28;20484;-73
2022/09/22 00:13:46;;;;;;;4.80;3.50;;;8.70;99.90;;;;;;5053134;28;20488;-73
2022/09/22 00:16:14;;;;;;;6.23;3.43;;;8.70;99.90;;;;;;5053782;28;20464;-73
2022/09/22 00:18:42;;;;;;;6.10;3.90;;;8.60;99.90;;;;;;5053805;28;20452;-72
2022/09/22 00:21:11;;;;;;;5.30;3.80;;;8.60;99.90;;;;;;5052739;28;20865;-73
2022/09/22 00:23:38;;;;;;;5.80;3.80;;;8.60;99.90;;;;;;5053144;28;20738;-73
2022/09/22 00:26:09;;;;;;;12.90;4.07;;;8.60;99.90;;;;;;5052010;28;20449;-72
2022/09/22 00:28:36;;;;;;;4.83;4.33;;;8.50;99.90;;;;;;5053286;28;20492;-73
2022/09/22 00:31:07;;;;;;;7.10;3.90;;;8.50;99.90;;;;;;5052644;28;20488;-73
2022/09/22 00:33:34;;;;;;;3.60;3.27;;;8.50;99.90;;;;;;5053182;28;20516;-73
2022/09/22 00:36:04;;;;;;;4.80;3.70;;;8.40;99.90;;;;;;5052461;28;20467;-73
2022/09/22 00:38:31;;;;;;;4.40;3.70;;;8.50;99.90;;;;;;5053151;28;21010;-73
2022/09/22 00:40:59;;;;;;;7.13;3.23;;;8.50;99.90;;;;;;5052571;28;20507;-73
2022/09/22 00:43:28;;;;;;;4.87;3.63;;;8.40;99.90;;;;;;5052488;28;20656;-73
2022/09/22 00:45:59;;;;;;;4.47;3.07;;;8.40;99.90;;;;;;5052042;28;20860;-73
2022/09/22 00:48:28;;;;;;;6.80;3.33;;;8.40;99.90;;;;;;5052214;28;20483;-72
2022/09/22 00:50:58;;;;;;;4.07;3.67;;;8.30;99.90;;;;;;5052123;28;20870;-73
2022/09/22 00:53:26;;;;;;;3.40;3.10;;;8.30;99.90;;;;;;5052376;28;20481;-73
2022/09/22 00:55:58;;;;;;;4.50;3.07;;;8.30;99.90;;;;;;5052319;28;20985;-73
2022/09/22 00:58:30;;;;;;;3.23;2.90;;;8.30;99.90;;;;;;5052613;28;20449;-72
2022/09/22 01:00:57;;;;;;;3.07;2.83;;;8.30;99.90;;;;;;5051877;28;20456;-72
2022/09/22 01:03:26;;;;;;;4.03;3.40;;;8.30;99.90;;;;;;5052216;28;20475;-72
2022/09/22 01:05:56;;;;;;;3.50;3.20;;;8.20;99.90;;;;;;5052381;28;20453;-72
2022/09/22 01:08:24;;;;;;;8.40;3.50;;;8.20;99.90;;;;;;5052713;28;20452;-73
2022/09/22 01:10:54;;;;;;;4.63;3.70;;;8.30;99.90;;;;;;5051773;28;21091;-73
2022/09/22 01:13:28;;;;;;;4.20;3.80;;;8.30;99.90;;;;;;5051279;28;20841;-73
2022/09/22 01:16:11;;;;;;;4.30;3.73;;;8.20;99.90;;;;;;5052251;28;20507;-72
2022/09/22 01:18:51;;;;;;;7.87;4.13;;;8.20;99.90;;;;;;5051632;28;20456;-73
2022/09/22 01:21:34;;;;;;;5.93;3.50;;;8.20;99.90;;;;;;5052053;28;20502;-72
2022/09/22 01:24:25;;;;;;;5.00;3.57;;;8.10;99.90;;;;;;5051677;28;20491;-72
2022/09/22 01:27:16;;;;;;;6.70;4.20;;;8.10;99.90;;;;;;5051887;28;20448;-73
2022/09/22 01:30:07;;;;;;;5.00;3.90;;;8.10;99.90;;;;;;5048905;28;20461;-72
2022/09/22 01:32:41;;;;;;;4.53;4.00;;;8.00;99.90;;;;;;5051179;28;20457;-72
2022/09/22 01:35:16;;;;;;;7.23;4.40;;;8.00;99.90;;;;;;5051299;28;20488;-73
2022/09/22 01:37:53;;;;;;;5.83;4.03;;;8.00;99.90;;;;;;5051965;28;20473;-72
2022/09/22 01:40:26;;;;;;;6.30;4.53;;;8.00;99.90;;;;;;5050989;28;20510;-72
2022/09/22 01:42:59;;;;;;;14.37;4.63;;;7.90;99.90;;;;;;5051329;28;21102;-72
2022/09/22 01:45:30;;;;;;;5.63;4.67;;;7.90;99.90;;;;;;5045960;28;20832;-72
2022/09/22 01:48:02;;;;;;;5.00;3.93;;;7.90;99.90;;;;;;5051772;28;20466;-72
2022/09/22 01:50:34;;;;;;;12.37;4.40;;;7.90;99.90;;;;;;5051754;28;20452;-72
2022/09/22 01:53:05;;;;;;;7.10;5.10;;;7.90;99.90;;;;;;5050984;28;20474;-72
2022/09/22 01:55:35;;;;;;;6.97;5.10;;;7.90;99.90;;;;;;5051234;28;20492;-72
2022/09/22 01:58:04;;;;;;;9.40;4.33;;;7.80;99.90;;;;;;5050760;28;20445;-72
2022/09/22 02:00:33;;;;;;;10.80;4.73;;;7.80;99.90;;;;;;5046354;28;20460;-72
2022/09/22 02:03:05;;;;;;;7.50;5.03;;;7.80;99.90;;;;;;5050873;28;20463;-72
2022/09/22 02:05:35;;;;;;;12.17;4.70;;;7.80;99.90;;;;;;5051045;28;20450;-72
2022/09/22 02:08:07;;;;;;;6.90;4.77;;;7.80;99.90;;;;;;5051233;28;20461;-72
2022/09/22 02:10:40;;;;;;;7.30;4.07;;;7.70;99.90;;;;;;5051436;28;20450;-73
2022/09/22 02:13:07;;;;;;;4.90;4.30;;;7.60;99.90;;;;;;5050987;28;20463;-72
2022/09/22 02:18:22;;;;;;;9.43;4.30;;;7.60;99.90;;;;;;5051107;28;20977;-73
2022/09/22 02:20:50;;;;;;;6.50;4.23;;;7.60;99.90;;;;;;5050778;28;20501;-73
2022/09/22 02:23:16;;;;;;;6.17;4.27;;;7.60;99.90;;;;;;5050834;28;20563;-72
2022/09/22 02:25:45;;;;;;;6.50;3.97;;;7.60;99.90;;;;;;5050944;28;20451;-72
2022/09/22 02:28:15;;;;;;;5.20;4.53;;;7.60;99.90;;;;;;5050907;28;20450;-73
2022/09/22 02:30:45;;;;;;;7.93;4.27;;;7.60;99.90;;;;;;5050503;28;20452;-73
2022/09/22 02:33:14;;;;;;;4.00;3.63;;;7.50;99.90;;;;;;5051216;28;20464;-73
2022/09/22 02:35:46;;;;;;;4.10;3.70;;;7.60;99.90;;;;;;5050683;28;20565;-72
2022/09/22 02:38:18;;;;;;;7.70;4.00;;;7.60;99.90;;;;;;5049522;28;21211;-73
2022/09/22 02:40:48;;;;;;;10.37;4.10;;;7.50;99.90;;;;;;5050542;28;20453;-73
2022/09/22 02:43:19;;;;;;;5.50;4.03;;;7.50;99.90;;;;;;5049858;28;20530;-72
2022/09/22 02:45:53;;;;;;;8.90;4.33;;;7.50;99.90;;;;;;5050095;28;20453;-72
2022/09/22 02:48:23;;;;;;;4.10;3.43;;;7.50;99.90;;;;;;5049523;28;20460;-72
2022/09/22 02:50:51;;;;;;;5.07;4.57;;;7.50;99.90;;;;;;5050492;28;20450;-72
2022/09/22 02:53:18;;;;;;;7.13;4.50;;;7.50;99.90;;;;;;5050585;28;20484;-72
2022/09/22 02:55:46;;;;;;;8.03;4.27;;;7.50;99.90;;;;;;5050606;28;20489;-73
2022/09/22 02:58:15;;;;;;;5.67;3.90;;;7.50;99.90;;;;;;5050533;28;20454;-73
2022/09/22 03:00:42;;;;;;;5.23;4.13;;;7.50;99.90;;;;;;5050174;28;20537;-73
2022/09/22 03:03:11;;;;;;;8.77;5.00;;;7.40;99.90;;;;;;5050352;28;20497;-73
2022/09/22 03:05:38;;;;;;;6.50;4.10;;;7.40;99.90;;;;;;5050316;28;20495;-74
2022/09/22 03:08:05;;;;;;;5.80;4.50;;;7.40;99.90;;;;;;5049824;28;20840;-74
2022/09/22 03:10:32;;;;;;;7.80;4.63;;;7.40;99.90;;;;;;5050597;28;20449;-74
2022/09/22 03:12:59;;;;;;;5.60;4.20;;;7.40;99.90;;;;;;5049935;28;20965;-74
2022/09/22 03:15:26;;;;;;;8.47;4.30;;;7.40;99.90;;;;;;5050157;28;20476;-74
2022/09/22 03:17:52;;;;;;;7.87;4.10;;;7.40;99.90;;;;;;5049982;28;20967;-74
2022/09/22 03:20:21;;;;;;;8.30;5.00;;;7.40;99.90;;;;;;5050292;28;20480;-73
2022/09/22 03:22:48;;;;;;;5.50;4.40;;;7.40;99.90;;;;;;5050494;28;20515;-74
2022/09/22 03:25:14;;;;;;;6.80;4.33;;;7.40;99.90;;;;;;5050145;28;20471;-74
2022/09/22 03:27:41;;;;;;;7.60;4.20;;;7.30;99.90;;;;;;5050356;28;20446;-74
2022/09/22 03:30:09;;;;;;;11.20;4.57;;;7.30;99.90;;;;;;5050060;28;20461;-74
2022/09/22 03:32:37;;;;;;;5.00;4.10;;;7.30;99.90;;;;;;5046559;28;20460;-74
2022/09/22 03:35:04;;;;;;;5.93;4.17;;;7.20;99.90;;;;;;5049349;28;20482;-74
2022/09/22 03:37:34;;;;;;;5.90;4.87;;;7.20;99.90;;;;;;5050464;28;20456;-74
2022/09/22 03:40:01;;;;;;;4.80;4.17;;;7.10;99.90;;;;;;5049433;28;20831;-74
2022/09/22 03:42:27;;;;;;;6.07;4.33;;;7.10;99.90;;;;;;5053547;28;20478;-74
2022/09/22 03:44:54;;;;;;;14.70;4.30;;;7.10;99.90;;;;;;5053933;28;20472;-74
2022/09/22 03:47:21;;;;;;;5.00;4.53;;;7.10;99.90;;;;;;5053344;28;20462;-73
2022/09/22 03:49:47;;;;;;;7.30;4.53;;;6.90;99.90;;;;;;5053784;28;20462;-74
2022/09/22 03:52:14;;;;;;;6.90;3.73;;;7.00;99.90;;;;;;5053923;28;20450;-75
2022/09/22 03:54:42;;;;;;;4.80;4.10;;;7.00;99.90;;;;;;5053790;28;20484;-74
2022/09/22 03:57:09;;;;;;;10.03;4.53;;;7.00;99.90;;;;;;5052789;28;20456;-74
2022/09/22 03:59:35;;;;;;;5.90;4.27;;;7.00;99.90;;;;;;5048584;28;20448;-74
2022/09/22 04:02:03;;;;;;;4.63;4.23;;;7.00;99.90;;;;;;5053452;28;20453;-74
2022/09/22 04:04:30;;;;;;;5.27;4.20;;;7.00;99.90;;;;;;5053355;28;20984;-74
2022/09/22 04:06:56;;;;;;;7.13;4.13;;;7.00;99.90;;;;;;5053139;28;20465;-74
2022/09/22 04:09:23;;;;;;;7.40;4.23;;;6.90;99.90;;;;;;5052949;28;20503;-74
2022/09/22 04:11:51;;;;;;;10.47;4.67;;;6.90;99.90;;;;;;5052537;28;20457;-74
2022/09/22 04:14:18;;;;;;;7.13;4.50;;;6.90;99.90;;;;;;5053236;28;21016;-74
2022/09/22 04:16:44;;;;;;;5.37;4.47;;;6.90;99.90;;;;;;5052925;28;20459;-74
2022/09/22 04:19:12;;;;;;;7.10;4.60;;;6.80;99.90;;;;;;5053497;28;20450;-74
2022/09/22 04:21:38;;;;;;;7.90;4.47;;;6.80;99.90;;;;;;5053455;28;20458;-74
2022/09/22 04:24:10;;;;;;;13.80;4.60;;;6.80;99.90;;;;;;5053308;28;20482;-74
2022/09/22 04:26:37;;;;;;;6.13;4.10;;;6.80;99.90;;;;;;5053028;28;20857;-74
2022/09/22 04:29:05;;;;;;;15.60;4.60;;;6.80;99.90;;;;;;5053119;28;20896;-74
2022/09/22 04:31:32;;;;;;;5.57;4.47;;;6.80;99.90;;;;;;5053295;28;20465;-74
2022/09/22 04:33:59;;;;;;;6.37;5.37;;;6.70;99.90;;;;;;5053309;28;20476;-74
2022/09/22 04:36:25;;;;;;;7.50;5.00;;;6.70;99.90;;;;;;5052307;28;20484;-74
2022/09/22 04:38:53;;;;;;;6.03;4.80;;;6.70;99.90;;;;;;5052945;28;20899;-74
2022/09/22 04:41:20;;;;;;;17.40;4.57;;;6.70;99.90;;;;;;5051457;28;20463;-74
2022/09/22 04:43:46;;;;;;;8.77;4.43;;;6.70;99.90;;;;;;5053180;28;20469;-74
2022/09/22 04:46:14;;;;;;;7.47;4.40;;;6.70;99.90;;;;;;5052307;28;20454;-74
2022/09/22 04:48:41;;;;;;;9.40;4.53;;;6.70;99.90;;;;;;5053225;28;20462;-74
2022/09/22 04:51:08;;;;;;;6.60;4.10;;;6.60;99.90;;;;;;5052576;28;20459;-74
2022/09/22 04:53:35;;;;;;;8.60;4.90;;;6.60;99.90;;;;;;5052656;28;20474;-74
2022/09/22 04:56:02;;;;;;;4.70;4.03;;;6.60;99.90;;;;;;5051484;28;20488;-74
2022/09/22 04:58:28;;;;;;;6.27;4.53;;;6.60;99.90;;;;;;5052411;28;20449;-74
2022/09/22 05:00:55;;;;;;;11.63;5.20;;;6.60;99.90;;;;;;5052765;28;20461;-74
2022/09/22 05:03:23;;;;;;;18.10;5.40;;;6.60;99.90;;;;;;5051538;28;20878;-74
2022/09/22 05:05:50;;;;;;;9.70;5.53;;;6.60;99.90;;;;;;5052163;28;20468;-74
2022/09/22 05:08:17;;;;;;;17.37;6.83;;;6.50;99.90;;;;;;5052097;28;20996;-74
2022/09/22 05:10:44;;;;;;;16.90;6.63;;;6.50;99.90;;;;;;5052203;28;20510;-75
2022/09/22 05:13:12;;;;;;;9.63;5.80;;;6.50;99.90;;;;;;5051942;28;20511;-74
2022/09/22 05:15:39;;;;;;;12.27;7.13;;;6.50;99.90;;;;;;5052227;28;20492;-75
2022/09/22 05:18:06;;;;;;;12.13;6.80;;;6.50;99.90;;;;;;5052002;28;20449;-75
2022/09/22 05:20:34;;;;;;;18.87;7.27;;;6.50;99.90;;;;;;5046214;28;20454;-75
2022/09/22 05:23:01;;;;;;;14.70;7.13;;;6.50;99.90;;;;;;5052055;28;20456;-74
2022/09/22 05:25:27;;;;;;;10.87;7.03;;;6.50;99.90;;;;;;5051842;28;20445;-75
2022/09/22 05:27:55;;;;;;;18.50;7.30;;;6.40;99.90;;;;;;5052166;28;20449;-75
2022/09/22 05:30:24;;;;;;;15.77;7.50;;;6.50;99.90;;;;;;5051991;28;20450;-74
2022/09/22 05:32:52;;;;;;;14.40;8.03;;;6.50;99.90;;;;;;5052105;28;20446;-74
2022/09/22 05:35:20;;;;;;;13.90;7.20;;;6.50;99.90;;;;;;5051288;28;20613;-74
2022/09/22 05:37:50;;;;;;;12.23;7.43;;;6.50;99.90;;;;;;5051822;28;20462;-75
2022/09/22 05:40:17;;;;;;;13.37;7.13;;;6.60;99.90;;;;;;5047162;28;20461;-75
2022/09/22 05:42:45;;;;;;;16.03;7.00;;;6.70;99.90;;;;;;5045359;28;20968;-75
2022/09/22 05:45:13;;;;;;;18.83;6.83;;;6.70;99.90;;;;;;5047013;28;20473;-75
2022/09/22 05:47:41;;;;;;;23.00;6.40;;;6.70;99.90;;;;;;5047169;28;20468;-75
2022/09/22 05:50:09;;;;;;;13.37;6.40;;;6.80;99.90;;;;;;5047287;28;20842;-74
2022/09/22 05:52:36;;;;;;;16.50;7.20;;;6.90;99.90;;;;;;5047383;28;20450;-75
2022/09/22 05:55:06;;;;;;;8.93;6.03;;;7.20;99.90;;;;;;5047525;28;20486;-75
2022/09/22 05:57:32;;;;;;;14.40;6.00;;;7.40;99.90;;;;;;5047458;28;20446;-75
2022/09/22 05:59:59;;;;;;;8.30;5.53;;;7.60;99.90;;;;;;5047728;28;20503;-76
2022/09/22 06:02:26;;;;;;;9.67;5.70;;;8.00;99.90;;;;;;5047811;28;20456;-77
2022/09/22 06:04:53;;;;;;;10.70;5.50;;;8.40;99.90;;;;;;5046773;28;20475;-77
2022/09/22 06:07:20;;;;;;;8.20;5.40;;;8.90;99.90;;;;;;5046320;28;20899;-77
2022/09/22 06:09:47;;;;;;;6.57;5.20;;;9.40;99.90;;;;;;5047801;28;20448;-77
2022/09/22 06:12:15;;;;;;;11.87;5.63;;;10.00;99.90;;;;;;5047031;28;20459;-79
2022/09/22 06:14:42;;;;;;;7.70;5.13;;;10.50;99.90;;;;;;5047194;28;20477;-76
2022/09/22 06:17:10;;;;;;;9.17;4.73;;;10.90;99.90;;;;;;5046080;28;20485;-76
2022/09/22 06:19:37;;;;;;;5.87;4.83;;;11.20;99.90;;;;;;5046318;28;20461;-76
2022/09/22 06:22:04;;;;;;;6.43;4.30;;;11.60;99.90;;;;;;5046236;28;20514;-76
2022/09/22 06:24:31;;;;;;;7.10;4.40;;;11.90;99.90;;;;;;5047235;28;20477;-77
2022/09/22 06:26:57;;;;;;;8.67;5.03;;;12.20;99.90;;;;;;5044933;28;20494;-76
2022/09/22 06:29:25;;;;;;;4.93;4.50;;;12.30;99.90;;;;;;5046595;28;20449;-77
2022/09/22 06:31:52;;;;;;;5.70;3.73;;;12.40;99.90;;;;;;5046436;28;21194;-77
2022/09/22 06:34:19;;;;;;;12.73;4.67;;;12.70;99.90;;;;;;5046263;28;20473;-77
2022/09/22 06:36:45;;;;;;;7.80;4.53;;;13.10;99.90;;;;;;5045000;28;20475;-77
2022/09/22 06:39:13;;;;;;;4.30;3.67;;;13.30;99.90;;;;;;5047990;28;20460;-77
2022/09/22 06:41:39;;;;;;;9.43;3.90;;;13.50;99.90;;;;;;5047445;28;20450;-77
2022/09/22 06:44:11;;;;;;;4.97;3.83;;;13.70;99.90;;;;;;5047374;28;20957;-77
2022/09/22 06:46:39;;;;;;;5.70;4.07;;;13.90;99.90;;;;;;5047301;28;20511;-77
2022/09/22 06:49:06;;;;;;;14.00;4.60;;;14.10;99.90;;;;;;5047469;28;20445;-77
2022/09/22 06:51:34;;;;;;;13.20;5.10;;;14.40;99.90;;;;;;5047357;28;20453;-77
2022/09/22 06:54:02;;;;;;;4.40;4.00;;;14.50;99.90;;;;;;5047821;28;21308;-77
2022/09/22 06:56:34;;;;;;;7.23;4.00;;;14.80;99.90;;;;;;5047852;28;20474;-77
2022/09/22 06:59:01;;;;;;;4.97;4.27;;;15.00;99.90;;;;;;5047788;28;20444;-78
2022/09/22 07:01:29;;;;;;;15.97;4.50;;;15.40;99.90;;;;;;5047723;28;20460;-78
2022/09/22 07:03:57;;;;;;;4.67;4.23;;;15.70;99.90;;;;;;5047880;28;21392;-77
2022/09/22 07:06:25;;;;;;;5.60;3.80;;;15.70;99.90;;;;;;5047780;28;20945;-77
2022/09/22 07:08:51;;;;;;;8.00;3.93;;;15.80;99.90;;;;;;5047700;28;20450;-77
2022/09/22 07:11:22;;;;;;;6.40;3.90;;;15.90;99.90;;;;;;5047762;28;20453;-77
2022/09/22 07:13:52;;;;;;;5.67;4.50;;;15.80;99.90;;;;;;5047167;28;20469;-77
2022/09/22 07:16:20;;;;;;;9.07;4.83;;;15.70;99.90;;;;;;5050242;28;20522;-77
2022/09/22 07:18:48;;;;;;;4.30;4.00;;;15.60;99.90;;;;;;5051857;28;20450;-78
2022/09/22 07:21:19;;;;;;;8.80;4.67;;;15.50;99.90;;;;;;5051684;28;20456;-77
2022/09/22 07:23:48;;;;;;;6.50;4.20;;;15.40;99.90;;;;;;5051725;28;20465;-77
2022/09/22 07:26:18;;;;;;;6.23;4.37;;;15.30;99.90;;;;;;5051772;28;20438;-77
2022/09/22 07:28:50;;;;;;;6.60;4.80;;;15.20;99.90;;;;;;5051490;28;20991;-77
2022/09/22 07:31:17;;;;;;;7.63;4.47;;;15.20;99.90;;;;;;5051700;28;20568;-78
2022/09/22 07:33:46;;;;;;;4.83;4.07;;;15.20;99.90;;;;;;5051330;28;20472;-77
2022/09/22 07:36:17;;;;;;;7.73;4.37;;;15.20;99.90;;;;;;5051097;28;20474;-77
2022/09/22 07:38:45;;;;;;;7.97;4.43;;;15.30;99.90;;;;;;5051142;28;20524;-77
2022/09/22 07:41:14;;;;;;;5.47;4.30;;;15.50;99.90;;;;;;5051544;28;20867;-77
2022/09/22 07:43:41;;;;;;;4.80;4.13;;;15.50;99.90;;;;;;5051115;28;20828;-78
2022/09/22 07:46:09;;;;;;;5.77;3.97;;;15.60;99.90;;;;;;5050994;28;20457;-78
2022/09/22 07:48:36;;;;;;;7.60;4.77;;;15.70;99.90;;;;;;5051250;28;20465;-78
2022/09/22 07:51:04;;;;;;;7.43;4.53;;;15.90;99.90;;;;;;5051100;28;20507;-78
2022/09/22 07:53:32;;;;;;;4.83;4.30;;;16.00;99.90;;;;;;5050591;28;20477;-78
2022/09/22 07:56:03;;;;;;;7.60;4.50;;;16.20;99.90;;;;;;5050874;28;20493;-77
2022/09/22 07:58:30;;;;;;;6.67;4.80;;;16.30;99.90;;;;;;5050952;28;20453;-78
2022/09/22 08:00:56;;;;;;;10.10;4.77;;;16.50;99.90;;;;;;5050976;28;20866;-78
2022/09/22 08:03:23;;;;;;;9.30;4.90;;;16.50;99.90;;;;;;5050633;28;20461;-78
2022/09/22 08:05:52;;;;;;;12.93;3.83;;;16.60;99.90;;;;;;5050363;28;20440;-78
2022/09/22 08:08:19;;;;;;;7.60;3.97;;;16.70;99.90;;;;;;5051201;28;20929;-78
2022/09/22 08:10:47;;;;;;;5.03;3.67;;;16.80;99.90;;;;;;5050953;28;20424;-78
2022/09/22 08:13:14;;;;;;;5.43;4.17;;;16.80;99.90;;;;;;5050470;28;20958;-78
2022/09/22 08:15:42;;;;;;;5.13;3.57;;;16.90;99.90;;;;;;5050330;28;20473;-78
2022/09/22 08:18:08;;;;;;;5.70;3.97;;;17.10;99.90;;;;;;5050630;28;20912;-78
2022/09/22 08:20:35;;;;;;;4.10;3.47;;;17.40;99.90;;;;;;5050176;28;20424;-78
2022/09/22 08:23:04;;;;;;;4.33;3.47;;;17.50;99.90;;;;;;5050863;28;20450;-78
2022/09/22 08:25:31;;;;;;;6.70;3.73;;;17.60;99.90;;;;;;5050445;28;21039;-78
2022/09/22 08:28:00;;;;;;;5.80;3.83;;;17.70;99.90;;;;;;5049734;28;20947;-78
2022/09/22 08:30:27;;;;;;;4.40;3.43;;;17.90;99.90;;;;;;5050726;28;20449;-78
2022/09/22 08:32:53;;;;;;;7.80;3.40;;;17.80;99.90;;;;;;5049940;28;20427;-78
2022/09/22 08:35:20;;;;;;;3.40;3.10;;;17.80;99.90;;;;;;5050172;28;20996;-78
2022/09/22 08:37:49;;;;;;;4.07;3.33;;;17.90;99.90;;;;;;5050417;28;20900;-78
2022/09/22 08:40:22;;;;;;;8.83;4.13;;;18.20;99.90;;;;;;5050590;28;20446;-78
2022/09/22 08:42:52;;;;;;;4.90;3.60;;;18.40;99.90;;;;;;5050080;28;20459;-78
2022/09/22 08:45:29;;;;;;;5.70;3.23;;;18.40;99.90;;;;;;5050665;28;20435;-78
2022/09/22 08:53:37;;;;;;;3.20;2.90;;;18.70;99.90;;;;;;5050165;28;20423;-78
2022/09/22 08:56:12;;;;;;;4.63;3.50;;;18.90;99.90;;;;;;5046964;28;20481;-78
2022/09/22 08:58:45;;;;;;;3.97;3.23;;;18.90;99.90;;;;;;5049463;28;20835;-78
2022/09/22 09:01:23;;;;;;;3.20;2.93;;;18.70;99.90;;;;;;5047554;28;20465;-78
2022/09/22 09:03:57;;;;;;;4.40;3.30;;;18.70;99.90;;;;;;5049218;28;20530;-78
2022/09/22 09:06:33;;;;;;;5.67;3.50;;;18.40;99.90;;;;;;5047981;28;20427;-77
2022/09/22 09:09:12;;;;;;;6.13;3.40;;;18.30;99.90;;;;;;5048785;28;20420;-78
2022/09/22 09:12:17;;;;;;;6.57;3.00;;;18.10;99.90;;;;;;5047776;28;20469;-77
2022/09/22 09:15:02;;;;;;;5.73;3.57;;;18.20;99.90;;;;;;5017463;28;20476;-78
2022/09/22 09:17:33;;;;;;;6.33;3.30;;;18.40;99.90;;;;;;5048204;28;20488;-78
2022/09/22 09:20:05;;;;;;;4.47;2.80;;;18.80;99.90;;;;;;5048819;28;20476;-78
2022/09/22 09:22:39;;;;;;;5.00;2.67;;;19.20;99.90;;;;;;5048093;28;20427;-78
2022/09/22 09:25:15;;;;;;;3.93;2.70;;;19.40;99.90;;;;;;5047358;28;20447;-78
2022/09/22 09:27:45;;;;;;;3.13;2.73;;;19.50;99.90;;;;;;5048299;28;20452;-78
2022/09/22 09:30:16;;;;;;;3.10;2.53;;;19.70;99.90;;;;;;5048228;28;20449;-78
2022/09/22 09:32:48;;;;;;;3.73;2.37;;;19.40;99.90;;;;;;5048372;28;20885;-78
2022/09/22 09:35:17;;;;;;;6.60;3.50;;;19.40;99.90;;;;;;5047342;28;20469;-78
2022/09/22 09:37:46;;;;;;;3.17;2.30;;;19.40;99.90;;;;;;5048086;28;20455;-78
2022/09/22 09:40:16;;;;;;;2.20;2.00;;;19.60;99.90;;;;;;5046050;28;20795;-78
2022/09/22 09:42:44;;;;;;;4.33;2.27;;;19.90;99.90;;;;;;5048764;28;20532;-79
2022/09/22 09:45:14;;;;;;;6.93;2.33;;;20.20;99.90;;;;;;5047369;28;20478;-78
2022/09/22 09:47:56;;;;;;;2.60;2.30;;;20.30;99.90;;;;;;5047680;28;20443;-78
2022/09/22 09:50:24;;;;;;;5.50;2.53;;;20.60;99.90;;;;;;5048370;28;20431;-78
2022/09/22 09:52:51;;;;;;;4.77;2.30;;;20.40;99.90;;;;;;5047868;28;20826;-78
2022/09/22 09:55:24;;;;;;;4.20;2.43;;;20.10;99.90;;;;;;5047190;28;20493;-78
2022/09/22 09:58:09;;;;;;;4.03;2.60;;;19.70;99.90;;;;;;5047385;28;20477;-78
2022/09/22 10:00:50;;;;;;;5.10;2.70;;;19.80;99.90;;;;;;5047402;28;20862;-78
2022/09/22 10:03:24;;;;;;;6.53;2.70;;;20.10;99.90;;;;;;5047545;28;20862;-78
2022/09/22 10:05:57;;;;;;;4.60;2.60;;;20.20;99.90;;;;;;5047049;28;20510;-78
2022/09/22 10:08:25;;;;;;;3.63;2.57;;;20.30;99.90;;;;;;5046796;28;20481;-78
2022/09/22 10:10:57;;;;;;;9.00;4.17;;;20.40;99.90;;;;;;5045421;28;20457;-78
2022/09/22 10:13:33;;;;;;;5.87;2.67;;;20.40;99.90;;;;;;5047185;28;20505;-78
2022/09/22 10:16:07;;;;;;;8.20;3.30;;;20.40;99.90;;;;;;5046947;28;20835;-78
2022/09/22 10:18:39;;;;;;;4.20;2.30;;;20.40;99.90;;;;;;5046834;28;20476;-78
2022/09/22 10:21:14;;;;;;;6.97;2.40;;;20.30;99.90;;;;;;5046687;28;20461;-78
2022/09/22 10:23:41;;;;;;;6.17;1.90;;;20.30;99.90;;;;;;5047038;28;20479;-78
2022/09/22 10:26:17;;;;;;;3.73;2.00;;;20.00;99.90;;;;;;5047230;28;20453;-78
2022/09/22 10:28:49;;;;;;;8.43;2.17;;;19.70;99.90;;;;;;5047704;28;20453;-78
2022/09/22 10:31:21;;;;;;;3.57;2.17;;;19.70;99.90;;;;;;5046940;28;20511;-77
2022/09/22 10:33:57;;;;;;;4.13;2.00;;;19.50;99.90;;;;;;5047196;28;20463;-77
2022/09/22 10:36:26;;;;;;;5.43;2.10;;;19.50;99.90;;;;;;5045093;28;20432;-78
2022/09/22 10:38:54;;;;;;;4.93;2.50;;;19.80;99.90;;;;;;5046228;28;20510;-78
2022/09/22 10:41:26;;;;;;;2.93;1.93;;;19.60;99.90;;;;;;5046244;28;20432;-78
2022/09/22 10:43:55;;;;;;;5.17;1.97;;;19.60;99.90;;;;;;5045065;28;20488;-77
2022/09/22 10:46:50;;;;;;;3.27;2.00;;;19.90;99.90;;;;;;5045308;28;20468;-78
2022/09/22 10:49:32;;;;;;;2.70;1.40;;;20.10;99.90;;;;;;5045627;28;20460;-77
2022/09/22 10:52:08;;;;;;;3.53;1.57;;;20.00;99.90;;;;;;5047212;28;20427;-77
2022/09/22 10:54:47;;;;;;;3.40;1.93;;;20.20;99.90;;;;;;5045184;28;21282;-78
2022/09/22 10:57:31;;;;;;;4.03;1.90;;;20.20;99.90;;;;;;5045829;28;20481;-78
2022/09/22 11:00:09;;;;;;;4.97;1.60;;;20.30;99.90;;;;;;5047543;28;20481;-76
2022/09/22 11:03:05;;;;;;;2.93;2.00;;;20.50;99.90;;;;;;5047065;28;20427;-77
2022/09/22 11:14:26;;;;;;;1.90;1.60;;;20.70;99.90;;;;;;5047646;28;20519;-77
2022/09/22 11:17:05;;;;;;;5.70;1.90;;;20.60;99.90;;;;;;5046449;28;20501;-76
2022/09/22 11:20:08;;;;;;;3.77;1.50;;;20.30;99.90;;;;;;5046972;28;20445;-75
2022/09/22 11:23:20;;;;;;;3.33;1.60;;;20.10;99.90;;;;;;5033058;28;20416;-76
2022/09/22 11:25:57;;;;;;;2.07;1.50;;;20.30;99.90;;;;;;5046354;28;20957;-76
2022/09/22 11:28:38;;;;;;;4.23;1.80;;;20.40;99.90;;;;;;5047068;28;20445;-78
2022/09/22 11:31:06;;;;;;;1.90;1.37;;;20.30;99.90;;;;;;5046448;28;20420;-78
2022/09/22 11:34:05;;;;;;;4.30;1.60;;;20.10;99.90;;;;;;5046673;28;20484;-78
2022/09/22 11:36:41;;;;;;;1.60;1.43;;;20.10;99.90;;;;;;5045916;28;20481;-78
2022/09/22 11:39:19;;;;;;;3.97;1.47;;;20.30;99.90;;;;;;5047499;28;20460;-78
2022/09/22 11:41:55;;;;;;;6.13;1.90;;;20.40;99.90;;;;;;5046904;28;20446;-77
2022/09/22 11:44:31;;;;;;;2.40;1.40;;;20.50;99.90;;;;;;5045280;28;20447;-78
2022/09/22 11:47:26;;;;;;;4.07;1.73;;;21.00;99.90;;;;;;5045839;28;20456;-78
2022/09/22 11:50:26;;;;;;;1.40;1.30;;;21.20;99.90;;;;;;5041636;28;20462;-79
2022/09/22 11:53:23;;;;;;;2.37;1.43;;;21.30;99.90;;;;;;5047055;28;20601;-78
2022/09/22 11:56:03;;;;;;;3.73;1.60;;;20.80;99.90;;;;;;5046163;28;20453;-76
2022/09/22 11:58:33;;;;;;;1.73;1.40;;;20.70;99.90;;;;;;5045690;28;20542;-76
2022/09/22 12:01:05;;;;;;;3.07;1.70;;;20.80;99.90;;;;;;5045395;28;20465;-76
2022/09/22 12:03:38;;;;;;;3.87;1.50;;;21.00;99.90;;;;;;5048392;28;20901;-76
2022/09/22 12:06:10;;;;;;;4.67;1.73;;;21.00;99.60;;;;;;5049121;28;20953;-76
2022/09/22 12:08:40;;;;;;;1.53;1.40;;;21.30;99.40;;;;;;5049966;28;20523;-76
2022/09/22 12:11:12;;;;;;;3.63;1.40;;;21.30;99.90;;;;;;5049221;28;20445;-76
2022/09/22 12:13:44;;;;;;;1.80;1.40;;;21.70;99.90;;;;;;5049802;28;20571;-78
2022/09/22 12:16:17;;;;;;;3.00;1.33;;;21.60;99.90;;;;;;5049679;28;20453;-77
2022/09/22 12:18:53;;;;;;;2.37;1.70;;;21.50;99.90;;;;;;5049034;28;20481;-77
2022/09/22 12:21:35;;;;;;;4.00;1.50;;;21.70;99.90;;;;;;5049616;28;20463;-77
2022/09/22 12:24:03;;;;;;;1.60;1.50;;;22.20;99.90;;;;;;5049332;28;20493;-77
2022/09/22 12:26:34;;;;;;;7.80;1.50;;;22.10;99.70;;;;;;5048729;28;20457;-77
2022/09/22 12:29:04;;;;;;;1.70;1.60;;;22.30;99.10;;;;;;5048310;28;20457;-77
2022/09/22 12:31:35;;;;;;;4.13;1.63;;;22.30;99.90;;;;;;5048082;28;20432;-78
2022/09/22 12:34:03;;;;;;;3.30;1.80;;;22.40;99.90;;;;;;5049607;28;20473;-77
2022/09/22 12:36:32;;;;;;;5.70;1.70;;;22.60;99.40;;;;;;5048342;28;20457;-77
2022/09/22 12:39:16;;;;;;;4.03;1.60;;;22.20;99.90;;;;;;5048420;28;20485;-77
2022/09/22 12:41:46;;;;;;;2.40;1.63;;;21.70;99.80;;;;;;5049416;28;20461;-78
2022/09/22 12:44:18;;;;;;;5.80;1.97;;;21.80;99.90;;;;;;5048946;28;20531;-78
2022/09/22 12:46:45;;;;;;;3.10;1.80;;;22.10;99.90;;;;;;5047835;28;20860;-77
2022/09/22 12:49:16;;;;;;;6.33;1.80;;;22.10;99.90;;;;;;5049353;28;20456;-78
2022/09/22 12:51:44;;;;;;;2.47;1.73;;;22.60;99.90;;;;;;5048835;28;20484;-77
2022/09/22 12:54:38;;;;;;;3.63;1.70;;;23.00;99.90;;;;;;5048802;28;20484;-77
2022/09/22 12:57:24;;;;;;;3.00;1.73;;;23.00;99.30;;;;;;5048887;28;20536;-78
2022/09/22 13:00:28;;;;;;;1.77;1.67;;;23.00;99.80;;;;;;5048417;28;20461;-78
2022/09/22 13:02:56;;;;;;;3.43;1.90;;;22.10;99.00;;;;;;5049170;28;20453;-78
2022/09/22 13:05:42;;;;;;;4.80;1.60;;;21.50;99.90;;;;;;5047690;28;20528;-78
2022/09/22 13:08:22;;;;;;;3.00;1.70;;;21.30;99.90;;;;;;5049041;28;20452;-78
2022/09/22 13:10:58;;;;;;;3.10;1.60;;;21.60;99.90;;;;;;5048672;28;20788;-77
2022/09/22 13:13:36;;;;;;;3.03;1.77;;;21.40;99.90;;;;;;5047680;28;20465;-78
2022/09/22 13:16:05;;;;;;;3.10;1.73;;;21.20;99.90;;;;;;5049049;28;20534;-78
2022/09/22 13:18:34;;;;;;;3.47;1.83;;;20.80;99.90;;;;;;5047222;28;21121;-78
2022/09/22 13:21:02;;;;;;;3.30;1.87;;;20.30;99.90;;;;;;5047538;28;21162;-77
2022/09/22 13:23:29;;;;;;;3.23;1.80;;;19.90;99.90;;;;;;5048820;28;20586;-77
2022/09/22 13:26:06;;;;;;;2.80;2.00;;;19.80;99.90;;;;;;5047488;28;20465;-77
2022/09/22 13:28:34;;;;;;;2.10;1.60;;;19.60;99.90;;;;;;5047813;28;20606;-77